sensor_id;sensor_type;location;lat;lon;timestamp;P1;durP1;ratioP1;P2;durP2;ratioP2
54699;SDS011;40599;53.132;6.090;2022-09-09T00:00:22;17.57;;;10.63;;
54699;SDS011;40599;53.132;6.090;2022-09-09T00:08:36;16.37;;;10.13;;
54699;SDS011;40599;53.132;6.090;2022-09-09T00:11:15;14.67;;;10.50;;
54699;SDS011;40599;53.132;6.090;2022-09-09T00:13:52;15.63;;;11.10;;
54699;SDS011;40599;53.132;6.090;2022-09-09T00:16:19;14.03;;;12.07;;
54699;SDS011;40599;53.132;6.090;2022-09-09T00:21:38;15.03;;;11.70;;
54699;SDS011;40599;53.132;6.090;2022-09-09T00:24:17;20.35;;;12.20;;
54699;SDS011;40599;53.132;6.090;2022-09-09T00:27:11;19.77;;;11.30;;
54699;SDS011;40599;53.132;6.090;2022-09-09T00:32:58;15.20;;;11.03;;
54699;SDS011;40599;53.132;6.090;2022-09-09T00:41:17;15.03;;;11.93;;
54699;SDS011;40599;53.132;6.090;2022-09-09T00:48:57;16.63;;;11.57;;
54699;SDS011;40599;53.132;6.090;2022-09-09T01:02:13;13.17;;;11.40;;
54699;SDS011;40599;53.132;6.090;2022-09-09T01:04:47;15.65;;;10.63;;
54699;SDS011;40599;53.132;6.090;2022-09-09T01:07:16;19.27;;;11.23;;
54699;SDS011;40599;53.132;6.090;2022-09-09T01:09:56;15.30;;;10.17;;
54699;SDS011;40599;53.132;6.090;2022-09-09T01:12:25;14.97;;;10.37;;
54699;SDS011;40599;53.132;6.090;2022-09-09T01:15:03;15.80;;;10.60;;
54699;SDS011;40599;53.132;6.090;2022-09-09T01:20:17;13.40;;;9.40;;
54699;SDS011;40599;53.132;6.090;2022-09-09T01:22:57;13.63;;;9.25;;
54699;SDS011;40599;53.132;6.090;2022-09-09T01:28:16;15.63;;;9.95;;
54699;SDS011;40599;53.132;6.090;2022-09-09T01:30:47;14.43;;;8.77;;
54699;SDS011;40599;53.132;6.090;2022-09-09T01:33:16;12.73;;;8.93;;
54699;SDS011;40599;53.132;6.090;2022-09-09T01:38:28;12.20;;;9.03;;
54699;SDS011;40599;53.132;6.090;2022-09-09T01:40:55;10.63;;;9.17;;
54699;SDS011;40599;53.132;6.090;2022-09-09T01:43:23;12.57;;;8.87;;
54699;SDS011;40599;53.132;6.090;2022-09-09T01:45:52;15.63;;;9.20;;
54699;SDS011;40599;53.132;6.090;2022-09-09T01:48:20;12.77;;;8.97;;
54699;SDS011;40599;53.132;6.090;2022-09-09T01:50:47;14.33;;;9.93;;
54699;SDS011;40599;53.132;6.090;2022-09-09T01:53:13;13.05;;;9.60;;
54699;SDS011;40599;53.132;6.090;2022-09-09T01:55:42;9.57;;;8.20;;
54699;SDS011;40599;53.132;6.090;2022-09-09T02:04:42;12.10;;;9.03;;
54699;SDS011;40599;53.132;6.090;2022-09-09T02:10:06;12.67;;;8.80;;
54699;SDS011;40599;53.132;6.090;2022-09-09T02:12:39;18.98;;;9.13;;
54699;SDS011;40599;53.132;6.090;2022-09-09T02:15:11;13.23;;;8.80;;
54699;SDS011;40599;53.132;6.090;2022-09-09T02:17:49;12.53;;;9.53;;
54699;SDS011;40599;53.132;6.090;2022-09-09T02:20:17;15.80;;;10.20;;
54699;SDS011;40599;53.132;6.090;2022-09-09T02:22:44;14.67;;;9.63;;
54699;SDS011;40599;53.132;6.090;2022-09-09T02:25:14;12.77;;;10.10;;
54699;SDS011;40599;53.132;6.090;2022-09-09T02:27:43;13.17;;;10.03;;
54699;SDS011;40599;53.132;6.090;2022-09-09T02:30:11;12.83;;;9.40;;
54699;SDS011;40599;53.132;6.090;2022-09-09T02:32:38;13.88;;;10.43;;
54699;SDS011;40599;53.132;6.090;2022-09-09T02:35:08;13.53;;;11.10;;
54699;SDS011;40599;53.132;6.090;2022-09-09T02:37:39;15.03;;;10.93;;
54699;SDS011;40599;53.132;6.090;2022-09-09T02:40:07;17.97;;;11.43;;
54699;SDS011;40599;53.132;6.090;2022-09-09T02:42:41;16.03;;;10.30;;
54699;SDS011;40599;53.132;6.090;2022-09-09T02:45:10;14.63;;;10.33;;
54699;SDS011;40599;53.132;6.090;2022-09-09T02:55:37;16.03;;;11.53;;
54699;SDS011;40599;53.132;6.090;2022-09-09T02:58:08;15.77;;;11.23;;
54699;SDS011;40599;53.132;6.090;2022-09-09T03:00:36;17.40;;;11.97;;
54699;SDS011;40599;53.132;6.090;2022-09-09T03:03:05;22.33;;;13.03;;
54699;SDS011;40599;53.132;6.090;2022-09-09T03:07:57;18.03;;;12.20;;
54699;SDS011;40599;53.132;6.090;2022-09-09T03:10:23;21.42;;;12.30;;
54699;SDS011;40599;53.132;6.090;2022-09-09T03:12:49;17.97;;;12.43;;
54699;SDS011;40599;53.132;6.090;2022-09-09T03:15:15;20.02;;;14.02;;
54699;SDS011;40599;53.132;6.090;2022-09-09T03:17:41;18.38;;;12.48;;
54699;SDS011;40599;53.132;6.090;2022-09-09T03:20:07;16.03;;;12.80;;
54699;SDS011;40599;53.132;6.090;2022-09-09T03:22:33;20.73;;;13.00;;
54699;SDS011;40599;53.132;6.090;2022-09-09T03:24:59;16.35;;;12.95;;
54699;SDS011;40599;53.132;6.090;2022-09-09T03:27:25;18.55;;;12.85;;
54699;SDS011;40599;53.132;6.090;2022-09-09T03:29:51;21.67;;;14.10;;
54699;SDS011;40599;53.132;6.090;2022-09-09T03:32:17;19.57;;;13.30;;
54699;SDS011;40599;53.132;6.090;2022-09-09T03:34:43;17.73;;;14.07;;
54699;SDS011;40599;53.132;6.090;2022-09-09T03:37:09;18.77;;;13.55;;
54699;SDS011;40599;53.132;6.090;2022-09-09T03:39:35;21.47;;;13.87;;
54699;SDS011;40599;53.132;6.090;2022-09-09T03:42:01;16.93;;;12.27;;
54699;SDS011;40599;53.132;6.090;2022-09-09T03:44:29;21.40;;;13.67;;
54699;SDS011;40599;53.132;6.090;2022-09-09T03:46:55;23.63;;;13.55;;
54699;SDS011;40599;53.132;6.090;2022-09-09T03:49:21;17.13;;;13.60;;
54699;SDS011;40599;53.132;6.090;2022-09-09T03:51:47;17.73;;;12.85;;
54699;SDS011;40599;53.132;6.090;2022-09-09T03:54:13;19.08;;;13.75;;
54699;SDS011;40599;53.132;6.090;2022-09-09T03:56:39;20.23;;;13.30;;
54699;SDS011;40599;53.132;6.090;2022-09-09T03:59:06;18.97;;;13.83;;
54699;SDS011;40599;53.132;6.090;2022-09-09T04:03:59;24.20;;;13.67;;
54699;SDS011;40599;53.132;6.090;2022-09-09T04:06:25;25.30;;;14.97;;
54699;SDS011;40599;53.132;6.090;2022-09-09T04:08:51;23.85;;;14.73;;
54699;SDS011;40599;53.132;6.090;2022-09-09T04:11:17;25.08;;;15.00;;
54699;SDS011;40599;53.132;6.090;2022-09-09T04:13:43;21.70;;;14.47;;
54699;SDS011;40599;53.132;6.090;2022-09-09T04:16:10;18.73;;;14.77;;
54699;SDS011;40599;53.132;6.090;2022-09-09T04:18:38;23.13;;;15.10;;
54699;SDS011;40599;53.132;6.090;2022-09-09T04:21:04;22.80;;;14.70;;
54699;SDS011;40599;53.132;6.090;2022-09-09T04:23:31;22.53;;;13.70;;
54699;SDS011;40599;53.132;6.090;2022-09-09T04:25:58;22.93;;;14.87;;
54699;SDS011;40599;53.132;6.090;2022-09-09T04:28:26;17.00;;;13.88;;
54699;SDS011;40599;53.132;6.090;2022-09-09T04:30:54;22.53;;;14.17;;
54699;SDS011;40599;53.132;6.090;2022-09-09T04:33:20;22.00;;;15.05;;
54699;SDS011;40599;53.132;6.090;2022-09-09T04:35:47;21.77;;;13.90;;
54699;SDS011;40599;53.132;6.090;2022-09-09T04:38:13;18.37;;;14.00;;
54699;SDS011;40599;53.132;6.090;2022-09-09T04:40:43;19.13;;;13.20;;
54699;SDS011;40599;53.132;6.090;2022-09-09T04:43:12;21.77;;;13.77;;
54699;SDS011;40599;53.132;6.090;2022-09-09T04:45:39;18.20;;;12.67;;
54699;SDS011;40599;53.132;6.090;2022-09-09T04:48:06;22.65;;;13.63;;
54699;SDS011;40599;53.132;6.090;2022-09-09T04:50:33;21.17;;;12.75;;
54699;SDS011;40599;53.132;6.090;2022-09-09T04:53:02;19.55;;;13.63;;
54699;SDS011;40599;53.132;6.090;2022-09-09T04:55:30;21.77;;;14.07;;
54699;SDS011;40599;53.132;6.090;2022-09-09T04:57:56;22.33;;;14.60;;
54699;SDS011;40599;53.132;6.090;2022-09-09T05:00:25;23.60;;;15.57;;
54699;SDS011;40599;53.132;6.090;2022-09-09T05:02:51;25.77;;;15.87;;
54699;SDS011;40599;53.132;6.090;2022-09-09T05:05:16;20.03;;;15.20;;
54699;SDS011;40599;53.132;6.090;2022-09-09T05:10:09;22.50;;;14.83;;
54699;SDS011;40599;53.132;6.090;2022-09-09T05:12:35;21.92;;;16.08;;
54699;SDS011;40599;53.132;6.090;2022-09-09T05:15:01;25.43;;;16.60;;
54699;SDS011;40599;53.132;6.090;2022-09-09T05:17:27;26.00;;;17.20;;
54699;SDS011;40599;53.132;6.090;2022-09-09T05:19:53;25.57;;;17.17;;
54699;SDS011;40599;53.132;6.090;2022-09-09T05:22:21;25.37;;;15.53;;
54699;SDS011;40599;53.132;6.090;2022-09-09T05:24:48;26.37;;;16.87;;
54699;SDS011;40599;53.132;6.090;2022-09-09T05:27:17;25.80;;;17.90;;
54699;SDS011;40599;53.132;6.090;2022-09-09T05:29:44;23.53;;;17.20;;
54699;SDS011;40599;53.132;6.090;2022-09-09T05:32:11;23.33;;;16.77;;
54699;SDS011;40599;53.132;6.090;2022-09-09T05:34:38;27.67;;;18.17;;
54699;SDS011;40599;53.132;6.090;2022-09-09T05:37:04;29.47;;;18.53;;
54699;SDS011;40599;53.132;6.090;2022-09-09T05:39:30;24.50;;;17.00;;
54699;SDS011;40599;53.132;6.090;2022-09-09T05:41:57;26.67;;;17.90;;
54699;SDS011;40599;53.132;6.090;2022-09-09T05:44:23;26.27;;;18.43;;
54699;SDS011;40599;53.132;6.090;2022-09-09T05:46:52;25.07;;;17.73;;
54699;SDS011;40599;53.132;6.090;2022-09-09T05:49:19;28.50;;;17.77;;
54699;SDS011;40599;53.132;6.090;2022-09-09T05:51:45;27.85;;;19.00;;
54699;SDS011;40599;53.132;6.090;2022-09-09T05:56:40;24.23;;;16.50;;
54699;SDS011;40599;53.132;6.090;2022-09-09T05:59:06;24.13;;;16.08;;
54699;SDS011;40599;53.132;6.090;2022-09-09T06:01:33;23.52;;;15.93;;
54699;SDS011;40599;53.132;6.090;2022-09-09T06:04:00;22.13;;;15.80;;
54699;SDS011;40599;53.132;6.090;2022-09-09T06:06:27;21.25;;;14.32;;
54699;SDS011;40599;53.132;6.090;2022-09-09T06:08:56;22.13;;;15.03;;
54699;SDS011;40599;53.132;6.090;2022-09-09T06:11:24;18.33;;;14.53;;
54699;SDS011;40599;53.132;6.090;2022-09-09T06:13:52;19.37;;;14.30;;
54699;SDS011;40599;53.132;6.090;2022-09-09T06:16:20;22.90;;;14.93;;
54699;SDS011;40599;53.132;6.090;2022-09-09T06:18:51;21.53;;;14.93;;
54699;SDS011;40599;53.132;6.090;2022-09-09T06:23:48;24.63;;;14.13;;
54699;SDS011;40599;53.132;6.090;2022-09-09T06:26:17;22.50;;;14.47;;
54699;SDS011;40599;53.132;6.090;2022-09-09T06:28:48;21.97;;;15.27;;
54699;SDS011;40599;53.132;6.090;2022-09-09T06:31:16;21.07;;;14.90;;
54699;SDS011;40599;53.132;6.090;2022-09-09T06:33:46;21.77;;;15.83;;
54699;SDS011;40599;53.132;6.090;2022-09-09T06:36:18;20.30;;;14.80;;
54699;SDS011;40599;53.132;6.090;2022-09-09T06:38:45;22.03;;;14.73;;
54699;SDS011;40599;53.132;6.090;2022-09-09T06:41:12;21.02;;;15.90;;
54699;SDS011;40599;53.132;6.090;2022-09-09T06:43:40;21.57;;;15.20;;
54699;SDS011;40599;53.132;6.090;2022-09-09T06:46:08;23.35;;;15.27;;
54699;SDS011;40599;53.132;6.090;2022-09-09T06:48:35;20.50;;;14.87;;
54699;SDS011;40599;53.132;6.090;2022-09-09T06:51:09;23.53;;;14.43;;
54699;SDS011;40599;53.132;6.090;2022-09-09T06:53:36;18.10;;;13.20;;
54699;SDS011;40599;53.132;6.090;2022-09-09T06:58:35;17.77;;;13.53;;
54699;SDS011;40599;53.132;6.090;2022-09-09T07:01:21;19.77;;;14.07;;
54699;SDS011;40599;53.132;6.090;2022-09-09T07:06:16;18.87;;;12.70;;
54699;SDS011;40599;53.132;6.090;2022-09-09T07:08:52;23.13;;;12.93;;
54699;SDS011;40599;53.132;6.090;2022-09-09T07:11:20;17.33;;;12.93;;
54699;SDS011;40599;53.132;6.090;2022-09-09T07:13:47;17.90;;;11.80;;
54699;SDS011;40599;53.132;6.090;2022-09-09T07:16:17;19.48;;;11.85;;
54699;SDS011;40599;53.132;6.090;2022-09-09T07:18:45;15.80;;;11.07;;
54699;SDS011;40599;53.132;6.090;2022-09-09T07:21:12;14.65;;;11.00;;
54699;SDS011;40599;53.132;6.090;2022-09-09T07:23:39;17.57;;;10.93;;
54699;SDS011;40599;53.132;6.090;2022-09-09T07:28:36;17.53;;;12.20;;
54699;SDS011;40599;53.132;6.090;2022-09-09T07:31:02;14.65;;;10.93;;
54699;SDS011;40599;53.132;6.090;2022-09-09T07:33:30;12.83;;;10.93;;
54699;SDS011;40599;53.132;6.090;2022-09-09T07:38:30;13.47;;;10.43;;
54699;SDS011;40599;53.132;6.090;2022-09-09T07:41:03;14.77;;;10.07;;
54699;SDS011;40599;53.132;6.090;2022-09-09T07:43:32;13.00;;;9.50;;
54699;SDS011;40599;53.132;6.090;2022-09-09T07:45:58;13.43;;;9.32;;
54699;SDS011;40599;53.132;6.090;2022-09-09T07:48:26;11.07;;;8.53;;
54699;SDS011;40599;53.132;6.090;2022-09-09T07:50:52;13.95;;;8.18;;
54699;SDS011;40599;53.132;6.090;2022-09-09T07:53:28;12.37;;;8.80;;
54699;SDS011;40599;53.132;6.090;2022-09-09T07:55:53;13.10;;;8.27;;
54699;SDS011;40599;53.132;6.090;2022-09-09T07:58:20;10.43;;;8.13;;
54699;SDS011;40599;53.132;6.090;2022-09-09T08:00:47;8.27;;;7.00;;
54699;SDS011;40599;53.132;6.090;2022-09-09T08:03:13;10.70;;;7.45;;
54699;SDS011;40599;53.132;6.090;2022-09-09T08:05:39;8.98;;;6.93;;
54699;SDS011;40599;53.132;6.090;2022-09-09T08:08:06;12.13;;;6.93;;
54699;SDS011;40599;53.132;6.090;2022-09-09T08:12:59;8.90;;;6.83;;
54699;SDS011;40599;53.132;6.090;2022-09-09T08:15:25;9.52;;;6.65;;
54699;SDS011;40599;53.132;6.090;2022-09-09T08:17:51;12.50;;;6.95;;
54699;SDS011;40599;53.132;6.090;2022-09-09T08:20:17;14.65;;;6.68;;
54699;SDS011;40599;53.132;6.090;2022-09-09T08:22:43;13.70;;;6.70;;
54699;SDS011;40599;53.132;6.090;2022-09-09T08:25:10;9.23;;;6.45;;
54699;SDS011;40599;53.132;6.090;2022-09-09T08:27:36;11.33;;;6.80;;
54699;SDS011;40599;53.132;6.090;2022-09-09T08:30:03;11.07;;;6.18;;
54699;SDS011;40599;53.132;6.090;2022-09-09T08:32:29;12.25;;;6.68;;
54699;SDS011;40599;53.132;6.090;2022-09-09T08:34:55;13.00;;;7.00;;
54699;SDS011;40599;53.132;6.090;2022-09-09T08:37:22;8.83;;;6.33;;
54699;SDS011;40599;53.132;6.090;2022-09-09T08:39:48;10.18;;;6.80;;
54699;SDS011;40599;53.132;6.090;2022-09-09T08:42:22;8.93;;;7.47;;
54699;SDS011;40599;53.132;6.090;2022-09-09T08:45:11;16.43;;;7.10;;
54699;SDS011;40599;53.132;6.090;2022-09-09T08:53:22;10.50;;;6.13;;
54699;SDS011;40599;53.132;6.090;2022-09-09T08:56:02;12.27;;;6.13;;
54699;SDS011;40599;53.132;6.090;2022-09-09T08:58:34;9.90;;;5.80;;
54699;SDS011;40599;53.132;6.090;2022-09-09T09:11:25;10.93;;;5.40;;
54699;SDS011;40599;53.132;6.090;2022-09-09T09:16:26;11.00;;;4.97;;
54699;SDS011;40599;53.132;6.090;2022-09-09T09:18:56;9.47;;;4.93;;
54699;SDS011;40599;53.132;6.090;2022-09-09T09:23:55;10.47;;;4.77;;
54699;SDS011;40599;53.132;6.090;2022-09-09T09:26:23;12.60;;;4.47;;
54699;SDS011;40599;53.132;6.090;2022-09-09T09:28:51;14.97;;;4.63;;
54699;SDS011;40599;53.132;6.090;2022-09-09T09:31:20;11.37;;;4.20;;
54699;SDS011;40599;53.132;6.090;2022-09-09T09:36:13;11.90;;;4.57;;
54699;SDS011;40599;53.132;6.090;2022-09-09T09:38:51;9.63;;;4.13;;
54699;SDS011;40599;53.132;6.090;2022-09-09T09:41:28;12.13;;;4.45;;
54699;SDS011;40599;53.132;6.090;2022-09-09T09:43:55;9.00;;;4.00;;
54699;SDS011;40599;53.132;6.090;2022-09-09T09:46:22;12.57;;;3.72;;
54699;SDS011;40599;53.132;6.090;2022-09-09T09:48:58;11.10;;;4.47;;
54699;SDS011;40599;53.132;6.090;2022-09-09T09:51:25;13.10;;;3.97;;
54699;SDS011;40599;53.132;6.090;2022-09-09T09:53:51;10.20;;;4.07;;
54699;SDS011;40599;53.132;6.090;2022-09-09T09:56:25;11.33;;;4.20;;
54699;SDS011;40599;53.132;6.090;2022-09-09T09:58:53;11.83;;;3.60;;
54699;SDS011;40599;53.132;6.090;2022-09-09T10:03:50;10.20;;;3.10;;
54699;SDS011;40599;53.132;6.090;2022-09-09T10:06:17;9.33;;;3.23;;
54699;SDS011;40599;53.132;6.090;2022-09-09T10:08:46;9.63;;;3.55;;
54699;SDS011;40599;53.132;6.090;2022-09-09T10:19:05;9.00;;;2.70;;
54699;SDS011;40599;53.132;6.090;2022-09-09T10:29:18;10.93;;;3.20;;
54699;SDS011;40599;53.132;6.090;2022-09-09T10:36:49;7.43;;;2.97;;
54699;SDS011;40599;53.132;6.090;2022-09-09T10:52:34;7.03;;;2.60;;
54699;SDS011;40599;53.132;6.090;2022-09-09T10:55:10;10.30;;;2.70;;
54699;SDS011;40599;53.132;6.090;2022-09-09T11:00:06;8.00;;;2.40;;
54699;SDS011;40599;53.132;6.090;2022-09-09T11:02:33;5.23;;;2.50;;
54699;SDS011;40599;53.132;6.090;2022-09-09T11:07:42;9.97;;;2.80;;
54699;SDS011;40599;53.132;6.090;2022-09-09T11:10:24;6.80;;;2.40;;
54699;SDS011;40599;53.132;6.090;2022-09-09T11:12:53;6.33;;;2.67;;
54699;SDS011;40599;53.132;6.090;2022-09-09T11:15:36;10.03;;;2.67;;
54699;SDS011;40599;53.132;6.090;2022-09-09T11:18:04;5.17;;;2.10;;
54699;SDS011;40599;53.132;6.090;2022-09-09T11:20:32;9.90;;;2.60;;
54699;SDS011;40599;53.132;6.090;2022-09-09T11:23:04;4.33;;;2.33;;
54699;SDS011;40599;53.132;6.090;2022-09-09T11:25:45;7.83;;;2.70;;
54699;SDS011;40599;53.132;6.090;2022-09-09T11:33:23;11.17;;;2.70;;
54699;SDS011;40599;53.132;6.090;2022-09-09T11:38:44;8.70;;;2.47;;
54699;SDS011;40599;53.132;6.090;2022-09-09T11:41:11;9.17;;;2.90;;
54699;SDS011;40599;53.132;6.090;2022-09-09T11:46:05;11.27;;;2.53;;
54699;SDS011;40599;53.132;6.090;2022-09-09T11:53:28;9.33;;;2.70;;
54699;SDS011;40599;53.132;6.090;2022-09-09T11:58:33;7.90;;;2.60;;
54699;SDS011;40599;53.132;6.090;2022-09-09T12:01:12;12.43;;;2.77;;
54699;SDS011;40599;53.132;6.090;2022-09-09T12:08:37;9.45;;;3.10;;
54699;SDS011;40599;53.132;6.090;2022-09-09T12:11:07;9.90;;;3.20;;
54699;SDS011;40599;53.132;6.090;2022-09-09T12:13:33;8.50;;;2.80;;
54699;SDS011;40599;53.132;6.090;2022-09-09T12:16:00;15.35;;;3.50;;
54699;SDS011;40599;53.132;6.090;2022-09-09T12:18:34;9.93;;;3.70;;
54699;SDS011;40599;53.132;6.090;2022-09-09T12:21:16;8.87;;;3.00;;
54699;SDS011;40599;53.132;6.090;2022-09-09T12:24:19;11.80;;;3.20;;
54699;SDS011;40599;53.132;6.090;2022-09-09T12:26:43;9.33;;;3.13;;
54699;SDS011;40599;53.132;6.090;2022-09-09T12:32:08;8.55;;;2.90;;
54699;SDS011;40599;53.132;6.090;2022-09-09T12:34:38;9.57;;;3.60;;
54699;SDS011;40599;53.132;6.090;2022-09-09T12:37:11;10.40;;;2.83;;
54699;SDS011;40599;53.132;6.090;2022-09-09T12:39:59;9.87;;;3.80;;
54699;SDS011;40599;53.132;6.090;2022-09-09T12:42:27;14.87;;;4.37;;
54699;SDS011;40599;53.132;6.090;2022-09-09T12:44:57;13.35;;;3.08;;
54699;SDS011;40599;53.132;6.090;2022-09-09T12:47:25;7.97;;;2.87;;
54699;SDS011;40599;53.132;6.090;2022-09-09T12:50:21;8.77;;;2.90;;
54699;SDS011;40599;53.132;6.090;2022-09-09T12:52:54;6.63;;;2.57;;
54699;SDS011;40599;53.132;6.090;2022-09-09T12:55:29;12.23;;;3.20;;
54699;SDS011;40599;53.132;6.090;2022-09-09T12:57:58;11.40;;;2.80;;
54699;SDS011;40599;53.132;6.090;2022-09-09T13:00:29;11.90;;;3.63;;
54699;SDS011;40599;53.132;6.090;2022-09-09T13:03:13;6.33;;;2.43;;
54699;SDS011;40599;53.132;6.090;2022-09-09T13:05:42;7.97;;;2.13;;
54699;SDS011;40599;53.132;6.090;2022-09-09T13:08:09;9.25;;;2.28;;
54699;SDS011;40599;53.132;6.090;2022-09-09T13:10:41;7.33;;;2.37;;
54699;SDS011;40599;53.132;6.090;2022-09-09T13:13:18;8.30;;;2.37;;
54699;SDS011;40599;53.132;6.090;2022-09-09T13:15:54;10.43;;;2.60;;
54699;SDS011;40599;53.132;6.090;2022-09-09T13:18:22;5.90;;;2.13;;
54699;SDS011;40599;53.132;6.090;2022-09-09T13:20:54;6.70;;;3.03;;
54699;SDS011;40599;53.132;6.090;2022-09-09T13:23:23;8.43;;;3.20;;
54699;SDS011;40599;53.132;6.090;2022-09-09T13:25:54;8.23;;;3.13;;
54699;SDS011;40599;53.132;6.090;2022-09-09T13:28:22;10.70;;;2.60;;
54699;SDS011;40599;53.132;6.090;2022-09-09T13:30:56;6.90;;;3.10;;
54699;SDS011;40599;53.132;6.090;2022-09-09T13:33:28;8.53;;;4.17;;
54699;SDS011;40599;53.132;6.090;2022-09-09T13:36:13;9.17;;;2.70;;
54699;SDS011;40599;53.132;6.090;2022-09-09T13:41:18;6.20;;;3.10;;
54699;SDS011;40599;53.132;6.090;2022-09-09T13:43:46;11.80;;;3.10;;
54699;SDS011;40599;53.132;6.090;2022-09-09T13:48:58;7.80;;;3.30;;
54699;SDS011;40599;53.132;6.090;2022-09-09T13:54:00;8.67;;;3.10;;
54699;SDS011;40599;53.132;6.090;2022-09-09T13:56:26;6.72;;;2.35;;
54699;SDS011;40599;53.132;6.090;2022-09-09T13:58:52;4.60;;;2.38;;
54699;SDS011;40599;53.132;6.090;2022-09-09T14:01:18;8.23;;;2.33;;
54699;SDS011;40599;53.132;6.090;2022-09-09T14:03:43;6.47;;;2.53;;
54699;SDS011;40599;53.132;6.090;2022-09-09T14:06:09;6.77;;;2.40;;
54699;SDS011;40599;53.132;6.090;2022-09-09T14:08:36;5.70;;;2.20;;
54699;SDS011;40599;53.132;6.090;2022-09-09T14:11:05;5.78;;;2.28;;
54699;SDS011;40599;53.132;6.090;2022-09-09T14:13:32;5.13;;;2.00;;
54699;SDS011;40599;53.132;6.090;2022-09-09T14:15:58;5.53;;;2.10;;
54699;SDS011;40599;53.132;6.090;2022-09-09T14:18:24;6.10;;;2.30;;
54699;SDS011;40599;53.132;6.090;2022-09-09T14:20:50;4.47;;;1.92;;
54699;SDS011;40599;53.132;6.090;2022-09-09T14:23:16;8.48;;;2.15;;
54699;SDS011;40599;53.132;6.090;2022-09-09T14:25:43;4.10;;;2.08;;
54699;SDS011;40599;53.132;6.090;2022-09-09T14:28:12;8.52;;;2.20;;
54699;SDS011;40599;53.132;6.090;2022-09-09T14:30:39;7.20;;;2.30;;
54699;SDS011;40599;53.132;6.090;2022-09-09T14:33:08;6.07;;;1.83;;
54699;SDS011;40599;53.132;6.090;2022-09-09T14:35:38;6.50;;;2.27;;
54699;SDS011;40599;53.132;6.090;2022-09-09T14:38:06;5.00;;;2.07;;
54699;SDS011;40599;53.132;6.090;2022-09-09T14:40:33;4.63;;;2.10;;
54699;SDS011;40599;53.132;6.090;2022-09-09T14:43:00;5.53;;;2.07;;
54699;SDS011;40599;53.132;6.090;2022-09-09T14:45:26;4.85;;;1.88;;
54699;SDS011;40599;53.132;6.090;2022-09-09T14:47:52;4.07;;;2.10;;
54699;SDS011;40599;53.132;6.090;2022-09-09T14:50:18;8.18;;;2.38;;
54699;SDS011;40599;53.132;6.090;2022-09-09T14:52:45;6.17;;;2.77;;
54699;SDS011;40599;53.132;6.090;2022-09-09T14:57:38;6.93;;;2.30;;
54699;SDS011;40599;53.132;6.090;2022-09-09T15:00:05;6.47;;;2.53;;
54699;SDS011;40599;53.132;6.090;2022-09-09T15:02:33;7.60;;;2.47;;
54699;SDS011;40599;53.132;6.090;2022-09-09T15:04:59;7.75;;;2.20;;
54699;SDS011;40599;53.132;6.090;2022-09-09T15:07:25;6.00;;;2.08;;
54699;SDS011;40599;53.132;6.090;2022-09-09T15:09:51;9.70;;;2.58;;
54699;SDS011;40599;53.132;6.090;2022-09-09T15:12:17;6.00;;;2.30;;
54699;SDS011;40599;53.132;6.090;2022-09-09T15:14:46;7.97;;;2.40;;
54699;SDS011;40599;53.132;6.090;2022-09-09T15:17:13;9.85;;;2.70;;
54699;SDS011;40599;53.132;6.090;2022-09-09T15:19:39;5.78;;;2.10;;
54699;SDS011;40599;53.132;6.090;2022-09-09T15:22:05;5.63;;;2.10;;
54699;SDS011;40599;53.132;6.090;2022-09-09T15:24:32;3.80;;;2.53;;
54699;SDS011;40599;53.132;6.090;2022-09-09T15:26:58;7.43;;;2.00;;
54699;SDS011;40599;53.132;6.090;2022-09-09T15:29:25;5.22;;;2.58;;
54699;SDS011;40599;53.132;6.090;2022-09-09T15:31:50;5.18;;;2.40;;
54699;SDS011;40599;53.132;6.090;2022-09-09T15:34:18;5.50;;;2.57;;
54699;SDS011;40599;53.132;6.090;2022-09-09T15:36:44;7.50;;;2.67;;
54699;SDS011;40599;53.132;6.090;2022-09-09T15:39:14;6.30;;;2.93;;
54699;SDS011;40599;53.132;6.090;2022-09-09T15:41:42;6.07;;;2.63;;
54699;SDS011;40599;53.132;6.090;2022-09-09T15:44:09;9.60;;;2.87;;
54699;SDS011;40599;53.132;6.090;2022-09-09T15:46:38;6.30;;;3.20;;
54699;SDS011;40599;53.132;6.090;2022-09-09T15:51:37;5.37;;;3.37;;
54699;SDS011;40599;53.132;6.090;2022-09-09T15:54:03;6.10;;;3.07;;
54699;SDS011;40599;53.132;6.090;2022-09-09T15:56:30;6.22;;;3.20;;
54699;SDS011;40599;53.132;6.090;2022-09-09T15:58:57;9.55;;;4.28;;
54699;SDS011;40599;53.132;6.090;2022-09-09T16:01:24;7.33;;;3.47;;
54699;SDS011;40599;53.132;6.090;2022-09-09T16:06:17;5.23;;;3.33;;
54699;SDS011;40599;53.132;6.090;2022-09-09T16:08:44;4.83;;;3.20;;
54699;SDS011;40599;53.132;6.090;2022-09-09T16:11:12;5.73;;;3.07;;
54699;SDS011;40599;53.132;6.090;2022-09-09T16:13:40;6.47;;;3.63;;
54699;SDS011;40599;53.132;6.090;2022-09-09T16:16:07;7.47;;;3.83;;
54699;SDS011;40599;53.132;6.090;2022-09-09T16:21:00;6.97;;;3.20;;
54699;SDS011;40599;53.132;6.090;2022-09-09T16:23:43;6.57;;;3.40;;
54699;SDS011;40599;53.132;6.090;2022-09-09T16:28:35;5.83;;;3.13;;
54699;SDS011;40599;53.132;6.090;2022-09-09T16:31:05;5.90;;;2.88;;
54699;SDS011;40599;53.132;6.090;2022-09-09T16:33:32;6.27;;;3.47;;
54699;SDS011;40599;53.132;6.090;2022-09-09T16:35:58;8.75;;;3.75;;
54699;SDS011;40599;53.132;6.090;2022-09-09T16:38:24;5.25;;;3.08;;
54699;SDS011;40599;53.132;6.090;2022-09-09T16:40:50;6.88;;;4.72;;
54699;SDS011;40599;53.132;6.090;2022-09-09T16:43:16;5.43;;;3.43;;
54699;SDS011;40599;53.132;6.090;2022-09-09T16:45:42;10.13;;;4.33;;
54699;SDS011;40599;53.132;6.090;2022-09-09T16:48:09;8.97;;;4.00;;
54699;SDS011;40599;53.132;6.090;2022-09-09T16:50:34;7.20;;;3.90;;
54699;SDS011;40599;53.132;6.090;2022-09-09T16:53:00;9.17;;;3.97;;
54699;SDS011;40599;53.132;6.090;2022-09-09T16:55:31;8.90;;;4.20;;
54699;SDS011;40599;53.132;6.090;2022-09-09T16:57:57;6.68;;;3.95;;
54699;SDS011;40599;53.132;6.090;2022-09-09T17:00:23;6.30;;;4.60;;
54699;SDS011;40599;53.132;6.090;2022-09-09T17:02:48;6.90;;;3.77;;
54699;SDS011;40599;53.132;6.090;2022-09-09T17:05:14;7.30;;;3.78;;
54699;SDS011;40599;53.132;6.090;2022-09-09T17:07:40;8.33;;;4.07;;
54699;SDS011;40599;53.132;6.090;2022-09-09T17:10:06;8.40;;;3.97;;
54699;SDS011;40599;53.132;6.090;2022-09-09T17:12:32;6.15;;;3.13;;
54699;SDS011;40599;53.132;6.090;2022-09-09T17:15:00;8.00;;;3.50;;
54699;SDS011;40599;53.132;6.090;2022-09-09T17:17:28;7.27;;;3.63;;
54699;SDS011;40599;53.132;6.090;2022-09-09T17:19:54;10.40;;;3.65;;
54699;SDS011;40599;53.132;6.090;2022-09-09T17:22:20;6.05;;;3.30;;
54699;SDS011;40599;53.132;6.090;2022-09-09T17:24:46;5.82;;;3.35;;
54699;SDS011;40599;53.132;6.090;2022-09-09T17:27:12;6.32;;;3.40;;
54699;SDS011;40599;53.132;6.090;2022-09-09T17:29:38;6.07;;;3.30;;
54699;SDS011;40599;53.132;6.090;2022-09-09T17:32:05;5.47;;;3.47;;
54699;SDS011;40599;53.132;6.090;2022-09-09T17:34:32;6.23;;;3.67;;
54699;SDS011;40599;53.132;6.090;2022-09-09T17:36:59;8.90;;;3.73;;
54699;SDS011;40599;53.132;6.090;2022-09-09T17:39:24;8.90;;;3.70;;
54699;SDS011;40599;53.132;6.090;2022-09-09T17:41:51;5.45;;;3.25;;
54699;SDS011;40599;53.132;6.090;2022-09-09T17:44:17;6.47;;;3.20;;
54699;SDS011;40599;53.132;6.090;2022-09-09T17:46:44;7.93;;;3.72;;
54699;SDS011;40599;53.132;6.090;2022-09-09T17:49:14;9.57;;;3.92;;
54699;SDS011;40599;53.132;6.090;2022-09-09T17:51:42;9.13;;;4.17;;
54699;SDS011;40599;53.132;6.090;2022-09-09T17:54:13;8.13;;;3.97;;
54699;SDS011;40599;53.132;6.090;2022-09-09T17:56:43;9.23;;;3.90;;
54699;SDS011;40599;53.132;6.090;2022-09-09T17:59:10;8.27;;;4.27;;